createdAt,value
2018-07-24T00:02:21.324Z,7.83
2018-07-24T00:04:50.886Z,11.43
2018-07-24T00:07:20.676Z,8.63
2018-07-24T00:09:50.796Z,8.43
2018-07-24T00:12:20.643Z,8.13
2018-07-24T00:14:50.617Z,11.87
2018-07-24T00:17:20.169Z,9.87
2018-07-24T00:19:50.004Z,8.80
2018-07-24T00:22:19.965Z,11.07
2018-07-24T00:24:49.864Z,8.93
2018-07-24T00:27:19.779Z,8.47
2018-07-24T00:29:49.208Z,9.43
2018-07-24T00:32:19.109Z,8.67
2018-07-24T00:34:48.537Z,8.80
2018-07-24T00:37:18.701Z,9.23
2018-07-24T00:39:48.710Z,9.67
2018-07-24T00:42:18.569Z,9.13
2018-07-24T00:44:48.471Z,10.73
2018-07-24T00:47:18.132Z,10.97
2018-07-24T00:49:47.918Z,8.87
2018-07-24T00:52:18.031Z,9.33
2018-07-24T00:54:48.165Z,9.10
2018-07-24T00:57:18.348Z,9.83
2018-07-24T00:59:49.451Z,9.13
2018-07-24T01:02:19.351Z,9.97
2018-07-24T01:04:49.334Z,9.20
2018-07-24T01:07:18.733Z,9.77
2018-07-24T01:09:48.790Z,8.50
2018-07-24T01:12:18.597Z,10.60
2018-07-24T01:14:48.377Z,8.80
2018-07-24T01:17:18.261Z,9.67
2018-07-24T01:19:48.051Z,9.60
2018-07-24T01:22:17.931Z,9.47
2018-07-24T01:24:47.444Z,8.90
2018-07-24T01:27:17.349Z,9.50
2018-07-24T01:29:47.598Z,10.13
2018-07-24T01:32:17.755Z,10.00
2018-07-24T01:34:47.705Z,11.10
2018-07-24T01:37:17.229Z,12.80
2018-07-24T01:39:47.348Z,9.17
2018-07-24T01:42:17.645Z,9.60
2018-07-24T01:44:47.715Z,9.67
2018-07-24T01:47:17.778Z,9.97
2018-07-24T01:49:47.569Z,9.23
2018-07-24T01:52:17.366Z,9.77
2018-07-24T01:54:47.436Z,10.20
2018-07-24T01:57:16.821Z,9.87
2018-07-24T01:59:46.754Z,10.03
2018-07-24T02:02:17.363Z,10.63
2018-07-24T02:04:47.645Z,10.50
2018-07-24T02:07:17.617Z,9.67
2018-07-24T02:09:47.552Z,9.50
2018-07-24T02:12:18.000Z,11.20
2018-07-24T02:14:47.809Z,10.80
2018-07-24T02:17:18.119Z,11.40
2018-07-24T02:19:47.595Z,9.77
2018-07-24T02:22:17.643Z,11.27
2018-07-24T02:24:47.579Z,9.90
2018-07-24T02:27:17.478Z,9.67
2018-07-24T02:29:47.542Z,9.43
2018-07-24T02:32:17.511Z,10.60
2018-07-24T02:34:47.366Z,9.93
2018-07-24T02:37:17.455Z,10.30
2018-07-24T02:39:47.429Z,10.30
2018-07-24T02:42:17.453Z,10.57
2018-07-24T02:44:47.364Z,10.30
2018-07-24T02:47:17.484Z,12.47
2018-07-24T02:49:47.352Z,10.20
2018-07-24T02:52:17.655Z,10.70
2018-07-24T02:54:47.482Z,11.10
2018-07-24T02:57:17.695Z,10.97
2018-07-24T02:59:48.013Z,10.50
2018-07-24T03:02:17.943Z,10.03
2018-07-24T03:04:47.980Z,11.27
2018-07-24T03:07:17.773Z,10.00
2018-07-24T03:09:47.613Z,10.87
2018-07-24T03:12:17.569Z,10.60
2018-07-24T03:14:47.557Z,14.07
2018-07-24T03:17:17.663Z,10.97
2018-07-24T03:19:47.466Z,10.80
2018-07-24T03:22:18.056Z,10.60
2018-07-24T03:24:47.506Z,10.77
2018-07-24T03:27:17.345Z,11.47
2018-07-24T03:29:47.244Z,10.53
2018-07-24T03:32:17.070Z,12.97
2018-07-24T03:34:46.986Z,10.83
2018-07-24T03:37:16.947Z,10.50
2018-07-24T03:39:46.834Z,11.17
2018-07-24T03:42:17.260Z,10.33
2018-07-24T03:44:47.232Z,12.13
2018-07-24T03:47:17.321Z,11.77
2018-07-24T03:49:46.896Z,14.90
2018-07-24T03:52:16.653Z,11.60
2018-07-24T03:54:46.555Z,11.33
2018-07-24T03:57:16.459Z,11.67
2018-07-24T03:59:46.533Z,12.83
2018-07-24T04:02:16.723Z,14.77
2018-07-24T04:04:46.576Z,11.80
2018-07-24T04:07:16.641Z,11.30
2018-07-24T04:09:46.702Z,12.43
2018-07-24T04:12:17.145Z,11.77
2018-07-24T04:14:47.228Z,12.97
2018-07-24T04:17:17.221Z,12.33
2018-07-24T04:19:47.115Z,12.20
2018-07-24T04:22:16.977Z,13.17
2018-07-24T04:24:47.012Z,12.60
2018-07-24T04:27:16.966Z,11.57
2018-07-24T04:29:47.055Z,11.70
2018-07-24T04:32:16.864Z,13.20
2018-07-24T04:35:05.212Z,11.73
2018-07-24T04:37:37.205Z,11.47
2018-07-24T04:40:07.341Z,13.13
2018-07-24T04:42:37.255Z,12.07
2018-07-24T04:45:07.741Z,11.47
2018-07-24T04:47:37.688Z,11.13
2018-07-24T04:50:07.740Z,10.93
2018-07-24T04:52:37.583Z,13.17
2018-07-24T04:55:07.956Z,10.60
2018-07-24T04:57:37.913Z,12.50
2018-07-24T05:00:08.028Z,12.50
2018-07-24T05:02:37.983Z,11.13
2018-07-24T05:05:08.063Z,13.80
2018-07-24T05:07:37.913Z,13.10
2018-07-24T05:10:07.829Z,12.30
2018-07-24T05:12:37.751Z,12.57
2018-07-24T05:15:11.621Z,12.33
2018-07-24T05:17:42.376Z,10.83
2018-07-24T05:20:12.408Z,10.93
2018-07-24T05:22:43.638Z,13.07
2018-07-24T05:25:19.496Z,15.07
2018-07-24T05:27:49.600Z,11.50
2018-07-24T05:30:19.526Z,11.53
2018-07-24T05:32:49.737Z,19.53
2018-07-24T05:35:19.925Z,10.57
2018-07-24T05:37:49.988Z,10.57
2018-07-24T05:40:19.831Z,9.83
2018-07-24T05:42:50.101Z,10.50
2018-07-24T05:45:20.062Z,8.13
2018-07-24T05:47:50.105Z,8.97
2018-07-24T05:50:20.194Z,9.20
2018-07-24T05:52:50.328Z,8.27
2018-07-24T05:55:20.144Z,9.33
2018-07-24T05:57:50.289Z,10.67
2018-07-24T06:00:20.426Z,9.60
2018-07-24T06:02:50.363Z,9.23
2018-07-24T06:05:20.357Z,9.03
2018-07-24T06:07:50.391Z,11.37
2018-07-24T06:10:21.300Z,9.97
2018-07-24T06:12:50.756Z,9.07
2018-07-24T06:15:20.958Z,10.57
2018-07-24T06:17:51.008Z,9.83
2018-07-24T06:20:21.099Z,9.30
2018-07-24T06:22:51.449Z,8.43
2018-07-24T06:25:21.523Z,10.43
2018-07-24T06:27:51.568Z,12.80
2018-07-24T06:30:21.691Z,9.67
2018-07-24T06:32:51.664Z,8.77
2018-07-24T06:35:21.377Z,8.53
2018-07-24T06:37:51.503Z,9.10
2018-07-24T06:40:21.282Z,8.10
2018-07-24T06:42:51.014Z,8.57
2018-07-24T06:45:21.021Z,9.07
2018-07-24T06:47:50.952Z,9.70
2018-07-24T06:50:20.560Z,8.50
2018-07-24T06:52:50.559Z,9.13
2018-07-24T06:55:20.492Z,9.67
2018-07-24T06:57:50.298Z,8.00
2018-07-24T07:00:19.763Z,8.50
2018-07-24T07:02:49.742Z,8.57
2018-07-24T07:05:19.619Z,12.20
2018-07-24T07:07:49.651Z,7.27
2018-07-24T07:10:19.196Z,8.67
2018-07-24T07:12:49.294Z,7.67
2018-07-24T07:15:19.120Z,7.47
2018-07-24T07:17:49.125Z,8.77
2018-07-24T07:20:18.735Z,7.63
2018-07-24T07:22:48.224Z,7.90
2018-07-24T07:25:17.688Z,9.73
2018-07-24T07:27:48.163Z,7.10
2018-07-24T07:30:17.978Z,10.43
2018-07-24T07:32:47.723Z,15.37
2018-07-24T07:35:17.562Z,10.53
2018-07-24T07:37:47.482Z,7.57
2018-07-24T07:40:17.312Z,7.40
2018-07-24T07:42:47.142Z,9.40
2018-07-24T07:45:17.071Z,7.63
2018-07-24T07:47:46.970Z,7.47
2018-07-24T07:50:16.720Z,8.03
2018-07-24T07:52:46.532Z,8.07
2018-07-24T07:55:16.640Z,7.17
2018-07-24T07:57:46.350Z,9.23
2018-07-24T08:00:16.332Z,10.07
2018-07-24T08:02:46.080Z,8.63
2018-07-24T08:05:15.953Z,8.10
2018-07-24T08:07:45.714Z,7.97
2018-07-24T08:10:15.808Z,7.17
2018-07-24T08:12:45.613Z,6.80
2018-07-24T08:15:15.110Z,11.83
2018-07-24T08:17:45.104Z,8.07
2018-07-24T08:20:14.973Z,6.93
2018-07-24T08:22:45.065Z,7.20
2018-07-24T08:25:14.474Z,8.97
2018-07-24T08:27:44.362Z,7.30
2018-07-24T08:30:14.356Z,7.57
2018-07-24T08:32:44.324Z,7.50
2018-07-24T08:35:14.086Z,8.43
2018-07-24T08:37:43.844Z,7.53
2018-07-24T08:40:13.858Z,8.37
2018-07-24T08:42:43.617Z,10.30
2018-07-24T08:45:13.599Z,8.33
2018-07-24T08:47:43.094Z,8.40
2018-07-24T08:50:13.118Z,9.20
2018-07-24T08:52:42.905Z,8.37
2018-07-24T08:55:12.905Z,7.37
2018-07-24T08:57:42.721Z,6.77
2018-07-24T09:00:12.546Z,7.57
2018-07-24T09:02:42.381Z,5.97
2018-07-24T09:05:12.062Z,6.07
2018-07-24T09:07:41.823Z,6.27
2018-07-24T09:10:11.252Z,6.23
2018-07-24T09:12:40.619Z,6.37
2018-07-24T09:15:10.370Z,5.53
2018-07-24T09:17:40.713Z,4.50
2018-07-24T09:20:10.461Z,5.87
2018-07-24T09:22:40.401Z,5.90
2018-07-24T09:25:10.582Z,9.07
2018-07-24T09:27:40.559Z,7.27
2018-07-24T09:30:10.479Z,6.07
2018-07-24T09:32:41.799Z,8.10
2018-07-24T09:35:11.636Z,6.77
2018-07-24T09:37:41.532Z,7.77
2018-07-24T09:40:11.706Z,7.23
2018-07-24T09:42:41.483Z,6.20
2018-07-24T09:45:11.409Z,6.60
2018-07-24T09:47:41.210Z,6.43
2018-07-24T09:50:11.146Z,5.20
2018-07-24T09:52:41.151Z,5.53
2018-07-24T09:55:11.205Z,5.67
2018-07-24T09:57:41.095Z,6.73
2018-07-24T10:00:11.006Z,6.30
2018-07-24T10:02:40.783Z,6.93
2018-07-24T10:05:10.837Z,6.77
2018-07-24T10:07:46.119Z,5.97
2018-07-24T10:10:18.553Z,5.73
2018-07-24T10:12:53.334Z,6.20
2018-07-24T10:15:23.877Z,5.17
2018-07-24T10:17:53.830Z,7.73
2018-07-24T10:20:24.724Z,8.07
2018-07-24T10:22:54.599Z,6.10
2018-07-24T10:25:25.108Z,6.53
2018-07-24T10:27:55.155Z,6.27
2018-07-24T10:30:25.131Z,5.70
2018-07-24T10:32:55.133Z,5.47
2018-07-24T10:35:25.024Z,5.37
2018-07-24T10:37:54.918Z,5.80
2018-07-24T10:40:24.816Z,5.87
2018-07-24T10:42:54.898Z,7.03
2018-07-24T10:45:24.853Z,5.07
2018-07-24T10:47:54.847Z,4.90
2018-07-24T10:50:24.901Z,5.73
2018-07-24T10:52:54.966Z,5.70
2018-07-24T10:55:24.799Z,9.07
2018-07-24T10:57:54.624Z,5.60
2018-07-24T11:00:24.536Z,5.20
2018-07-24T11:02:54.568Z,5.40
2018-07-24T11:05:24.665Z,5.17
2018-07-24T11:07:54.628Z,5.23
2018-07-24T11:10:24.990Z,6.45
2018-07-24T11:12:55.257Z,7.10
2018-07-24T11:15:25.332Z,5.37
2018-07-24T11:17:55.529Z,5.42
2018-07-24T11:20:25.480Z,5.70
2018-07-24T11:22:55.682Z,6.58
2018-07-24T11:25:25.776Z,5.57
2018-07-24T11:27:55.559Z,6.05
2018-07-24T11:30:25.711Z,5.97
2018-07-24T11:32:56.054Z,6.20
2018-07-24T11:35:26.088Z,7.80
2018-07-24T11:37:56.319Z,5.23
2018-07-24T11:40:26.617Z,6.80
2018-07-24T11:42:56.615Z,7.33
2018-07-24T11:45:26.656Z,5.37
2018-07-24T11:47:56.382Z,5.90
2018-07-24T11:50:26.230Z,6.47
2018-07-24T11:52:56.123Z,6.07
2018-07-24T11:55:29.353Z,5.50
2018-07-24T11:57:59.274Z,6.75
2018-07-24T12:00:29.193Z,5.95
2018-07-24T12:02:59.315Z,5.15
2018-07-24T12:05:29.275Z,6.40
2018-07-24T12:07:59.567Z,6.80
2018-07-24T12:10:29.598Z,5.67
2018-07-24T12:12:59.815Z,6.17
2018-07-24T12:15:29.244Z,6.40
2018-07-24T12:17:59.219Z,6.55
2018-07-24T12:20:29.122Z,6.05
2018-07-24T12:22:59.131Z,6.33
2018-07-24T12:25:28.965Z,6.42
2018-07-24T12:27:58.996Z,5.28
2018-07-24T12:30:29.200Z,5.53
2018-07-24T12:32:59.200Z,5.33
2018-07-24T12:35:29.210Z,8.63
2018-07-24T12:37:59.335Z,5.50
2018-07-24T12:40:29.536Z,5.72
2018-07-24T12:42:59.654Z,7.08
2018-07-24T12:45:29.696Z,6.53
2018-07-24T12:47:59.835Z,6.67
2018-07-24T12:50:29.974Z,5.70
2018-07-24T12:52:59.958Z,5.10
2018-07-24T12:55:29.838Z,5.40
2018-07-24T12:58:00.101Z,5.80
2018-07-24T13:00:30.128Z,5.00
2018-07-24T13:03:00.169Z,6.45
2018-07-24T13:05:30.200Z,5.40
2018-07-24T13:08:00.439Z,5.95
2018-07-24T13:10:30.514Z,6.08
2018-07-24T13:13:00.156Z,5.70
2018-07-24T13:15:29.682Z,5.40
2018-07-24T13:17:59.553Z,8.68
2018-07-24T13:20:29.921Z,5.10
2018-07-24T13:22:59.771Z,5.70
2018-07-24T13:25:29.883Z,9.10
2018-07-24T13:27:59.828Z,5.35
2018-07-24T13:30:30.099Z,5.00
2018-07-24T13:32:59.910Z,6.50
2018-07-24T13:35:30.746Z,4.80
2018-07-24T13:38:00.935Z,4.70
2018-07-24T13:40:30.654Z,4.78
2018-07-24T13:43:00.672Z,3.95
2018-07-24T13:45:30.696Z,6.33
2018-07-24T13:48:01.541Z,4.58
2018-07-24T13:50:31.633Z,4.67
2018-07-24T13:53:01.684Z,5.83
2018-07-24T13:55:31.658Z,7.17
2018-07-24T13:58:01.664Z,5.72
2018-07-24T14:00:31.535Z,6.67
2018-07-24T14:03:03.889Z,5.92
2018-07-24T14:05:37.932Z,5.40
2018-07-24T14:08:09.964Z,5.85
2018-07-24T14:10:39.959Z,7.20
2018-07-24T14:13:14.526Z,4.92
2018-07-24T14:15:44.611Z,5.87
2018-07-24T14:18:14.645Z,6.28
2018-07-24T14:20:44.399Z,4.15
2018-07-24T14:23:14.644Z,4.40
2018-07-24T14:25:44.702Z,5.00
2018-07-24T14:28:14.672Z,4.95
2018-07-24T14:30:44.795Z,4.55
2018-07-24T14:33:15.162Z,3.90
2018-07-24T14:35:45.359Z,5.22
2018-07-24T14:38:15.477Z,6.78
2018-07-24T14:40:46.632Z,6.40
2018-07-24T14:43:16.955Z,4.35
2018-07-24T14:45:47.531Z,5.30
2018-07-24T14:48:17.608Z,4.28
2018-07-24T14:53:24.410Z,3.95
2018-07-24T14:55:54.349Z,8.65
2018-07-24T14:58:24.375Z,6.37
2018-07-24T15:00:54.220Z,7.92
2018-07-24T15:03:24.249Z,4.40
2018-07-24T15:05:54.554Z,4.35
2018-07-24T15:08:24.642Z,5.00
2018-07-24T15:10:54.776Z,4.45
2018-07-24T15:13:27.688Z,4.67
2018-07-24T15:16:02.469Z,4.87
2018-07-24T15:18:33.978Z,5.90
2018-07-24T15:21:03.928Z,5.08
2018-07-24T15:23:33.436Z,5.75
2018-07-24T15:26:04.014Z,5.05
2018-07-24T15:28:33.888Z,4.60
2018-07-24T15:31:03.595Z,4.75
2018-07-24T15:33:33.119Z,4.40
2018-07-24T15:36:03.117Z,4.78
2018-07-24T15:38:33.113Z,4.70
2018-07-24T15:41:03.292Z,7.10
2018-07-24T15:43:33.298Z,5.60
2018-07-24T15:46:03.410Z,5.03
2018-07-24T15:48:33.236Z,4.25
2018-07-24T15:51:03.291Z,4.42
2018-07-24T15:53:33.155Z,4.97
2018-07-24T15:56:03.178Z,4.90
2018-07-24T15:58:33.225Z,4.75
2018-07-24T16:01:03.152Z,4.50
2018-07-24T16:03:33.023Z,4.95
2018-07-24T16:06:03.487Z,5.37
2018-07-24T16:08:35.909Z,6.80
2018-07-24T16:11:05.456Z,8.85
2018-07-24T16:13:35.402Z,5.37
2018-07-24T16:16:05.479Z,4.95
2018-07-24T16:18:35.527Z,4.70
2018-07-24T16:21:05.489Z,4.87
2018-07-24T16:23:35.501Z,5.40
2018-07-24T16:26:05.821Z,4.95
2018-07-24T16:28:35.984Z,5.37
2018-07-24T16:31:06.060Z,4.92
2018-07-24T16:33:36.144Z,5.00
2018-07-24T16:36:06.254Z,5.28
2018-07-24T16:38:36.321Z,5.35
2018-07-24T16:41:05.989Z,5.35
2018-07-24T16:43:36.187Z,5.00
2018-07-24T16:46:06.294Z,4.92
2018-07-24T16:48:36.183Z,5.17
2018-07-24T16:51:05.687Z,5.50
2018-07-24T16:53:35.767Z,5.75
2018-07-24T16:56:05.799Z,6.25
2018-07-24T16:58:35.783Z,5.97
2018-07-24T17:01:05.610Z,5.20
2018-07-24T17:03:35.626Z,5.12
2018-07-24T17:06:05.469Z,5.30
2018-07-24T17:08:35.263Z,4.60
2018-07-24T17:11:05.405Z,4.78
2018-07-24T17:13:35.334Z,4.80
2018-07-24T17:16:05.295Z,5.08
2018-07-24T17:18:35.611Z,4.65
2018-07-24T17:21:05.662Z,4.47
2018-07-24T17:23:35.779Z,5.10
2018-07-24T17:26:05.647Z,4.83
2018-07-24T17:28:35.113Z,4.58
2018-07-24T17:31:05.269Z,6.17
2018-07-24T17:33:35.288Z,5.37
2018-07-24T17:36:05.567Z,5.00
2018-07-24T17:38:35.901Z,5.33
2018-07-24T17:41:05.539Z,10.88
2018-07-24T17:43:35.286Z,5.10
2018-07-24T17:46:05.360Z,5.08
2018-07-24T17:48:35.353Z,4.75
2018-07-24T17:51:05.061Z,5.58
2018-07-24T17:53:35.042Z,5.53
2018-07-24T17:56:05.048Z,4.75
2018-07-24T17:58:35.232Z,5.25
2018-07-24T18:01:05.280Z,5.22
2018-07-24T18:03:35.593Z,5.72
2018-07-24T18:06:05.355Z,12.65
2018-07-24T18:08:35.241Z,9.80
2018-07-24T18:11:05.131Z,8.23
2018-07-24T18:13:34.607Z,10.53
2018-07-24T18:16:04.408Z,11.80
2018-07-24T18:18:34.596Z,9.30
2018-07-24T18:21:04.739Z,13.38
2018-07-24T18:23:34.596Z,6.67
2018-07-24T18:26:04.545Z,11.45
2018-07-24T18:28:34.484Z,10.70
2018-07-24T18:31:04.447Z,10.93
2018-07-24T18:33:34.314Z,8.03
2018-07-24T18:36:04.211Z,8.23
2018-07-24T18:38:34.153Z,10.03
2018-07-24T18:41:04.121Z,6.42
2018-07-24T18:43:34.309Z,7.20
2018-07-24T18:46:04.361Z,7.13
2018-07-24T18:48:34.101Z,11.40
2018-07-24T18:51:04.089Z,7.07
2018-07-24T18:53:33.628Z,7.20
2018-07-24T18:56:03.077Z,16.20
2018-07-24T18:58:33.291Z,8.47
2018-07-24T19:01:03.195Z,10.03
2018-07-24T19:03:33.185Z,8.50
2018-07-24T19:06:03.461Z,8.85
2018-07-24T19:08:33.013Z,8.13
2018-07-24T19:11:02.996Z,10.83
2018-07-24T19:13:33.339Z,11.30
2018-07-24T19:16:03.389Z,8.23
2018-07-24T19:18:33.564Z,11.90
2018-07-24T19:21:03.392Z,9.43
2018-07-24T19:23:33.594Z,10.20
2018-07-24T19:26:03.653Z,10.97
2018-07-24T19:28:33.607Z,9.33
2018-07-24T19:31:03.544Z,8.83
2018-07-24T19:33:33.331Z,8.30
2018-07-24T19:36:03.383Z,14.63
2018-07-24T19:38:33.393Z,7.80
2018-07-24T19:41:03.524Z,9.80
2018-07-24T19:43:33.408Z,10.80
2018-07-24T19:46:03.409Z,12.30
2018-07-24T19:48:33.358Z,15.57
2018-07-24T19:51:03.162Z,11.47
2018-07-24T19:53:33.144Z,12.17
2018-07-24T19:56:03.395Z,11.27
2018-07-24T19:58:33.314Z,8.20
2018-07-24T20:01:03.470Z,8.83
2018-07-24T20:03:33.689Z,11.43
2018-07-24T20:06:03.317Z,7.70
2018-07-24T20:08:33.378Z,12.57
2018-07-24T20:11:03.433Z,8.80
2018-07-24T20:13:33.363Z,15.07
2018-07-24T20:16:03.253Z,9.00
2018-07-24T20:18:33.128Z,8.23
2018-07-24T20:21:03.081Z,10.73
2018-07-24T20:23:33.447Z,8.80
2018-07-24T20:26:03.521Z,13.03
2018-07-24T20:28:33.846Z,10.90
2018-07-24T20:31:04.115Z,9.70
2018-07-24T20:33:34.083Z,9.27
2018-07-24T20:36:04.055Z,10.60
2018-07-24T20:38:33.975Z,10.73
2018-07-24T20:41:03.884Z,11.43
2018-07-24T20:43:34.082Z,9.40
2018-07-24T20:46:04.425Z,9.73
2018-07-24T20:48:34.256Z,9.43
2018-07-24T20:51:04.544Z,9.97
2018-07-24T20:53:33.991Z,11.17
2018-07-24T20:56:04.004Z,9.43
2018-07-24T20:58:34.121Z,11.10
2018-07-24T21:01:04.390Z,8.97
2018-07-24T21:03:34.124Z,8.97
2018-07-24T21:06:03.897Z,15.03
2018-07-24T21:08:33.785Z,11.07
2018-07-24T21:11:03.843Z,12.07
2018-07-24T21:13:33.777Z,20.83
2018-07-24T21:16:03.792Z,9.40
2018-07-24T21:18:33.250Z,16.83
2018-07-24T21:21:03.199Z,13.53
2018-07-24T21:23:33.110Z,21.60
2018-07-24T21:26:03.215Z,22.23
2018-07-24T21:28:33.122Z,21.67
2018-07-24T21:31:03.241Z,15.10
2018-07-24T21:33:33.516Z,14.77
2018-07-24T21:36:03.047Z,18.20
2018-07-24T21:38:33.190Z,15.70
2018-07-24T21:41:03.129Z,13.07
2018-07-24T21:43:33.257Z,13.93
2018-07-24T21:46:03.159Z,14.83
2018-07-24T21:48:32.984Z,13.60
2018-07-24T21:51:03.229Z,18.03
2018-07-24T21:53:32.714Z,12.67
2018-07-24T21:56:02.864Z,13.70
2018-07-24T21:58:33.028Z,9.20
2018-07-24T22:01:08.177Z,15.33
2018-07-24T22:03:38.131Z,15.47
2018-07-24T22:06:08.628Z,12.13
2018-07-24T22:08:39.332Z,7.10
2018-07-24T22:11:09.556Z,8.67
2018-07-24T22:13:39.489Z,10.20
2018-07-24T22:16:09.644Z,11.57
2018-07-24T22:18:39.263Z,12.23
2018-07-24T22:21:10.086Z,13.83
2018-07-24T22:23:40.096Z,10.77
2018-07-24T22:26:09.949Z,15.00
2018-07-24T22:28:40.226Z,12.17
2018-07-24T22:31:10.288Z,10.17
2018-07-24T22:33:40.254Z,12.60
2018-07-24T22:36:10.139Z,11.73
2018-07-24T22:38:40.192Z,13.40
2018-07-24T22:41:10.086Z,14.93
2018-07-24T22:43:40.140Z,11.93
2018-07-24T22:46:09.615Z,7.23
2018-07-24T22:48:39.646Z,11.07
2018-07-24T22:51:09.936Z,6.80
2018-07-24T22:53:39.991Z,9.77
2018-07-24T22:56:10.143Z,11.90
2018-07-24T22:58:39.852Z,11.33
2018-07-24T23:01:09.389Z,8.30
2018-07-24T23:03:39.470Z,12.63
2018-07-24T23:06:09.970Z,7.37
2018-07-24T23:08:40.295Z,8.03
2018-07-24T23:11:10.324Z,10.53
2018-07-24T23:13:40.634Z,7.77
2018-07-24T23:16:10.424Z,7.30
2018-07-24T23:18:40.808Z,9.80
2018-07-24T23:21:10.400Z,11.03
2018-07-24T23:23:40.748Z,7.53
2018-07-24T23:26:10.226Z,11.63
2018-07-24T23:28:40.449Z,10.20
2018-07-24T23:31:10.525Z,9.07
2018-07-24T23:33:40.974Z,9.10
2018-07-24T23:36:10.763Z,7.67
2018-07-24T23:38:41.356Z,11.33
2018-07-24T23:41:10.977Z,10.70
2018-07-24T23:43:40.880Z,11.33
2018-07-24T23:46:10.778Z,8.67
2018-07-24T23:48:40.763Z,9.90
2018-07-24T23:51:10.659Z,7.67
2018-07-24T23:53:40.592Z,11.97
2018-07-24T23:56:10.565Z,7.77
2018-07-24T23:58:40.500Z,11.77
